createdAt,value
2019-05-23T00:00:01.193Z,104.70
2019-05-23T00:02:57.278Z,148.97
2019-05-23T00:05:56.351Z,61.70
2019-05-23T00:08:46.079Z,132.93
2019-05-23T00:11:34.869Z,375.57
2019-05-23T00:14:35.143Z,424.63
2019-05-23T00:17:06.061Z,371.27
2019-05-23T00:19:36.732Z,143.70
2019-05-23T00:22:08.754Z,275.53
2019-05-23T00:24:40.436Z,246.77
2019-05-23T00:27:11.603Z,165.13
2019-05-23T00:29:44.364Z,156.97
2019-05-23T00:32:28.391Z,121.30
2019-05-23T00:34:59.384Z,36.80
2019-05-23T00:37:31.751Z,19.37
2019-05-23T00:40:03.992Z,37.47
2019-05-23T00:42:35.563Z,21.63
2019-05-23T00:45:09.882Z,70.83
2019-05-23T00:47:40.521Z,156.83
2019-05-23T00:50:11.942Z,193.17
2019-05-23T00:52:43.512Z,251.77
2019-05-23T00:55:16.449Z,252.17
2019-05-23T00:57:48.561Z,323.83
2019-05-23T01:00:22.862Z,257.90
2019-05-23T01:02:56.654Z,307.07
2019-05-23T01:05:28.239Z,254.87
2019-05-23T01:07:59.721Z,156.77
2019-05-23T01:10:31.264Z,104.10
2019-05-23T01:13:02.756Z,72.93
2019-05-23T01:15:33.111Z,63.07
2019-05-23T01:18:04.043Z,95.90
2019-05-23T01:20:49.729Z,88.33
2019-05-23T01:23:20.210Z,43.13
2019-05-23T01:25:50.937Z,34.43
2019-05-23T01:28:23.085Z,17.20
2019-05-23T01:30:58.109Z,21.83
2019-05-23T01:33:29.236Z,12.87
2019-05-23T01:35:59.709Z,26.80
2019-05-23T01:38:31.858Z,15.17
2019-05-23T01:41:04.145Z,22.30
2019-05-23T01:43:35.171Z,83.20
2019-05-23T01:46:06.423Z,182.87
2019-05-23T01:48:38.153Z,133.70
2019-05-23T01:51:09.744Z,115.03
2019-05-23T01:53:40.377Z,71.97
2019-05-23T01:56:10.875Z,96.67
2019-05-23T01:58:41.963Z,121.00
2019-05-23T02:01:12.737Z,100.07
2019-05-23T02:03:43.862Z,65.37
2019-05-23T02:06:14.983Z,128.93
2019-05-23T02:08:45.739Z,80.30
2019-05-23T02:11:18.845Z,46.53
2019-05-23T02:13:50.739Z,49.47
2019-05-23T02:16:23.437Z,41.03
2019-05-23T02:18:54.335Z,52.77
2019-05-23T02:21:26.123Z,95.80
2019-05-23T02:23:57.591Z,88.80
2019-05-23T02:26:28.814Z,103.60
2019-05-23T02:29:00.782Z,102.20
2019-05-23T02:31:32.487Z,113.33
2019-05-23T02:34:05.388Z,96.57
2019-05-23T02:36:37.611Z,109.73
2019-05-23T02:39:46.611Z,129.07
2019-05-23T02:42:24.134Z,53.13
2019-05-23T02:44:55.608Z,44.97
2019-05-23T02:47:41.994Z,42.33
2019-05-23T02:50:18.410Z,128.53
2019-05-23T02:52:52.314Z,65.97
2019-05-23T02:55:28.490Z,32.97
2019-05-23T02:58:15.402Z,33.70
2019-05-23T03:01:00.476Z,26.03
2019-05-23T03:03:32.932Z,29.07
2019-05-23T03:06:06.551Z,19.23
2019-05-23T03:08:37.865Z,29.90
2019-05-23T03:11:20.280Z,17.03
2019-05-23T03:13:52.118Z,26.17
2019-05-23T03:16:25.448Z,14.50
2019-05-23T03:19:01.348Z,18.70
2019-05-23T03:21:31.828Z,21.60
2019-05-23T03:24:05.095Z,17.63
2019-05-23T03:27:01.405Z,11.50
2019-05-23T03:29:33.492Z,17.63
2019-05-23T03:32:13.608Z,13.57
2019-05-23T03:34:47.555Z,14.93
2019-05-23T03:37:20.130Z,27.33
2019-05-23T03:39:50.858Z,29.97
2019-05-23T03:42:22.360Z,9.93
2019-05-23T03:44:53.375Z,14.17
2019-05-23T03:47:27.194Z,20.60
2019-05-23T03:49:58.557Z,47.43
2019-05-23T03:52:30.124Z,80.77
2019-05-23T03:55:02.424Z,10.40
2019-05-23T03:57:34.703Z,13.10
2019-05-23T04:00:06.841Z,12.53
2019-05-23T04:02:39.489Z,12.10
2019-05-23T04:05:11.635Z,10.77
2019-05-23T04:07:42.698Z,12.83
2019-05-23T04:10:13.857Z,21.30
2019-05-23T04:12:44.354Z,19.13
2019-05-23T04:15:15.082Z,37.17
2019-05-23T04:17:45.787Z,182.30
2019-05-23T04:20:16.880Z,114.97
2019-05-23T04:22:48.006Z,85.03
2019-05-23T04:25:18.664Z,124.70
2019-05-23T04:27:49.874Z,422.50
2019-05-23T04:30:20.533Z,474.07
2019-05-23T04:32:51.195Z,374.63
2019-05-23T04:35:21.676Z,387.10
2019-05-23T04:37:52.404Z,475.27
2019-05-23T04:40:23.374Z,599.73
2019-05-23T04:42:53.829Z,701.47
2019-05-23T04:45:24.447Z,767.33
2019-05-23T04:47:55.354Z,728.13
2019-05-23T04:50:26.569Z,649.63
2019-05-23T04:52:58.583Z,663.87
2019-05-23T04:55:29.453Z,700.33
2019-05-23T04:58:04.267Z,685.27
2019-05-23T05:00:32.927Z,616.43
2019-05-23T05:03:05.114Z,573.57
2019-05-23T05:05:35.958Z,614.80
2019-05-23T05:08:07.246Z,672.03
2019-05-23T05:10:38.720Z,545.07
2019-05-23T05:13:09.235Z,576.47
2019-05-23T05:15:39.712Z,551.67
2019-05-23T05:18:10.244Z,638.17
2019-05-23T05:20:41.872Z,574.60
2019-05-23T05:23:13.255Z,566.03
2019-05-23T05:25:43.804Z,572.40
2019-05-23T05:28:15.728Z,560.33
2019-05-23T05:30:46.359Z,562.57
2019-05-23T05:33:17.717Z,618.13
2019-05-23T05:35:48.008Z,546.07
2019-05-23T05:38:19.663Z,608.93
2019-05-23T05:40:49.967Z,576.07
2019-05-23T05:43:20.551Z,675.73
2019-05-23T05:45:51.573Z,602.60
2019-05-23T05:48:22.200Z,630.23
2019-05-23T05:50:53.953Z,656.30
2019-05-23T05:53:25.240Z,656.47
2019-05-23T05:55:55.562Z,669.53
2019-05-23T05:58:26.408Z,765.13
2019-05-23T06:01:08.618Z,666.23
2019-05-23T06:03:39.480Z,840.70
2019-05-23T06:06:22.038Z,762.73
2019-05-23T06:08:55.457Z,623.10
2019-05-23T06:11:25.755Z,636.63
2019-05-23T06:13:56.444Z,656.57
2019-05-23T06:16:27.236Z,615.07
2019-05-23T06:18:58.395Z,588.20
2019-05-23T06:21:30.795Z,581.13
2019-05-23T06:24:02.162Z,662.93
2019-05-23T06:26:32.617Z,616.13
2019-05-23T06:29:03.441Z,796.17
2019-05-23T06:31:34.301Z,607.13
2019-05-23T06:34:04.845Z,690.60
2019-05-23T06:36:35.888Z,664.33
2019-05-23T06:39:10.205Z,478.60
2019-05-23T06:41:40.866Z,530.37
2019-05-23T06:44:12.761Z,628.10
2019-05-23T06:46:43.660Z,591.13
2019-05-23T06:49:14.365Z,568.30
2019-05-23T06:51:44.732Z,842.87
2019-05-23T06:54:15.506Z,753.37
2019-05-23T06:56:46.679Z,656.07
2019-05-23T06:59:17.052Z,664.87
2019-05-23T07:01:47.369Z,540.27
2019-05-23T07:04:19.265Z,483.60
2019-05-23T07:06:49.962Z,570.47
2019-05-23T07:09:20.783Z,583.50
2019-05-23T07:11:54.617Z,470.27
2019-05-23T07:14:25.278Z,554.13
2019-05-23T07:16:55.558Z,494.93
2019-05-23T07:19:26.625Z,734.73
2019-05-23T07:21:58.346Z,759.07
2019-05-23T07:24:29.585Z,781.60
2019-05-23T07:27:00.138Z,827.37
2019-05-23T07:29:30.943Z,712.97
2019-05-23T07:32:01.393Z,596.80
2019-05-23T07:34:31.809Z,635.07
2019-05-23T07:37:02.481Z,733.50
2019-05-23T07:39:32.809Z,623.50
2019-05-23T07:42:04.185Z,679.77
2019-05-23T07:44:48.016Z,591.90
2019-05-23T07:47:10.758Z,894.27
2019-05-23T07:49:41.746Z,736.80
2019-05-23T07:52:12.048Z,676.90
2019-05-23T07:54:48.731Z,790.30
2019-05-23T07:57:20.238Z,847.23
2019-05-23T07:59:51.251Z,826.50
2019-05-23T08:02:28.004Z,749.77
2019-05-23T08:04:58.873Z,713.97
2019-05-23T08:07:32.817Z,543.83
2019-05-23T08:10:04.005Z,812.33
2019-05-23T08:12:34.579Z,650.53
2019-05-23T08:15:05.971Z,664.57
2019-05-23T08:17:36.350Z,834.10
2019-05-23T08:20:07.517Z,759.53
2019-05-23T08:22:38.242Z,734.73
2019-05-23T08:25:09.050Z,633.40
2019-05-23T08:27:39.867Z,817.17
2019-05-23T08:30:11.291Z,572.13
2019-05-23T08:32:42.144Z,899.47
2019-05-23T08:35:17.035Z,712.23
2019-05-23T08:37:46.225Z,725.53
2019-05-23T08:40:17.057Z,713.67
2019-05-23T08:42:48.076Z,689.87
2019-05-23T08:45:19.062Z,834.97
2019-05-23T08:47:49.741Z,846.70
2019-05-23T08:50:21.107Z,774.97
2019-05-23T08:52:51.448Z,670.53
2019-05-23T08:55:24.236Z,633.57
2019-05-23T08:57:55.261Z,613.90
2019-05-23T09:00:28.014Z,776.80
2019-05-23T09:02:59.309Z,641.00
2019-05-23T09:05:32.326Z,811.23
2019-05-23T09:08:02.865Z,899.50
2019-05-23T09:10:35.206Z,553.83
2019-05-23T09:13:05.778Z,686.90
2019-05-23T09:15:36.373Z,691.97
2019-05-23T09:18:08.017Z,631.23
2019-05-23T09:20:38.817Z,946.73
2019-05-23T09:23:09.141Z,600.77
2019-05-23T09:25:39.972Z,609.43
2019-05-23T09:28:12.081Z,886.97
2019-05-23T09:30:43.093Z,632.27
2019-05-23T09:33:13.904Z,816.53
2019-05-23T09:35:44.361Z,856.60
2019-05-23T09:38:15.200Z,832.50
2019-05-23T09:40:46.672Z,531.60
2019-05-23T09:43:17.348Z,467.17
2019-05-23T09:45:48.171Z,819.33
2019-05-23T09:48:18.743Z,697.03
2019-05-23T09:50:49.772Z,655.57
2019-05-23T09:53:20.591Z,722.43
2019-05-23T09:55:51.361Z,614.37
2019-05-23T09:58:22.142Z,610.97
2019-05-23T10:00:53.171Z,878.23
2019-05-23T10:03:23.726Z,740.23
2019-05-23T10:05:54.817Z,581.27
2019-05-23T10:08:25.177Z,582.80
2019-05-23T10:10:55.651Z,393.17
2019-05-23T10:13:38.612Z,722.03
2019-05-23T10:16:09.291Z,523.43
2019-05-23T10:18:41.771Z,386.67
2019-05-23T10:21:13.327Z,566.20
2019-05-23T10:23:44.085Z,801.07
2019-05-23T10:26:14.762Z,827.77
2019-05-23T10:28:45.130Z,594.40
2019-05-23T10:31:15.782Z,532.00
2019-05-23T10:33:46.465Z,649.00
2019-05-23T10:36:16.914Z,554.77
2019-05-23T10:38:47.287Z,479.07
2019-05-23T10:41:18.064Z,487.70
2019-05-23T10:43:48.823Z,651.67
2019-05-23T10:46:19.220Z,790.80
2019-05-23T10:48:49.940Z,412.10
2019-05-23T10:51:20.652Z,494.27
2019-05-23T10:53:50.958Z,518.43
2019-05-23T10:56:21.692Z,485.30
2019-05-23T10:58:52.504Z,443.87
2019-05-23T11:01:23.066Z,635.07
2019-05-23T11:03:55.174Z,413.43
2019-05-23T11:06:25.719Z,400.03
2019-05-23T11:08:56.458Z,449.27
2019-05-23T11:11:27.371Z,444.63
2019-05-23T11:13:57.858Z,489.67
2019-05-23T11:16:28.601Z,501.40
2019-05-23T11:18:59.194Z,467.87
2019-05-23T11:21:30.257Z,419.10
2019-05-23T11:24:00.570Z,535.33
2019-05-23T11:26:31.197Z,555.90
2019-05-23T11:29:01.724Z,590.98
2019-05-23T11:31:32.330Z,565.10
2019-05-23T11:34:03.229Z,644.73
2019-05-23T11:36:36.444Z,595.77
2019-05-23T11:39:08.261Z,671.87
2019-05-23T11:41:39.423Z,488.85
2019-05-23T11:44:10.060Z,522.98
2019-05-23T11:46:40.815Z,622.10
2019-05-23T11:49:11.930Z,461.77
2019-05-23T11:51:43.405Z,482.60
2019-05-23T11:54:13.842Z,466.95
2019-05-23T11:56:44.316Z,850.40
2019-05-23T11:59:15.349Z,546.77
2019-05-23T12:02:13.700Z,525.37
2019-05-23T12:04:45.181Z,512.67
2019-05-23T12:07:31.894Z,495.43
2019-05-23T12:10:02.454Z,751.73
2019-05-23T12:12:33.209Z,535.10
2019-05-23T12:15:05.440Z,643.83
2019-05-23T12:17:36.014Z,477.02
2019-05-23T12:20:27.636Z,530.65
2019-05-23T12:22:58.215Z,496.43
2019-05-23T12:25:30.383Z,384.83
2019-05-23T12:28:01.348Z,667.15
2019-05-23T12:30:31.900Z,675.67
2019-05-23T12:33:02.233Z,470.45
2019-05-23T12:35:32.739Z,359.70
2019-05-23T12:38:03.414Z,562.70
2019-05-23T12:40:34.118Z,822.45
2019-05-23T12:43:04.654Z,487.88
2019-05-23T12:45:35.901Z,694.00
2019-05-23T12:48:12.915Z,696.30
2019-05-23T12:50:44.696Z,686.05
2019-05-23T12:53:16.058Z,840.55
2019-05-23T12:55:46.941Z,717.20
2019-05-23T12:58:18.719Z,526.60
2019-05-23T13:00:55.371Z,703.77
2019-05-23T13:03:26.487Z,868.82
2019-05-23T13:05:56.861Z,630.33
2019-05-23T13:08:28.552Z,695.85
2019-05-23T13:10:59.107Z,773.10
2019-05-23T13:13:29.891Z,747.17
2019-05-23T13:16:00.760Z,997.47
2019-05-23T13:18:31.602Z,730.03
2019-05-23T13:21:02.088Z,735.07
2019-05-23T13:23:32.753Z,928.60
2019-05-23T13:26:03.529Z,643.57
2019-05-23T13:28:34.255Z,810.57
2019-05-23T13:31:05.001Z,646.23
2019-05-23T13:33:35.630Z,605.33
2019-05-23T13:36:06.712Z,701.93
2019-05-23T13:38:37.461Z,485.93
2019-05-23T13:41:08.267Z,624.93
2019-05-23T13:43:38.639Z,566.30
2019-05-23T13:46:09.213Z,587.27
2019-05-23T13:48:39.673Z,673.20
2019-05-23T13:51:10.120Z,555.53
2019-05-23T13:53:40.822Z,478.40
2019-05-23T13:56:11.185Z,684.70
2019-05-23T13:58:42.147Z,569.00
2019-05-23T14:01:13.136Z,513.63
2019-05-23T14:03:43.895Z,431.37
2019-05-23T14:06:14.515Z,441.57
2019-05-23T14:08:45.249Z,723.40
2019-05-23T14:11:16.048Z,797.97
2019-05-23T14:13:46.628Z,528.73
2019-05-23T14:16:17.752Z,710.20
2019-05-23T14:18:49.442Z,523.07
2019-05-23T14:21:20.305Z,548.67
2019-05-23T14:23:50.694Z,954.93
2019-05-23T14:26:21.057Z,537.20
2019-05-23T14:28:51.860Z,728.87
2019-05-23T14:31:23.741Z,578.00
2019-05-23T14:34:11.379Z,450.50
2019-05-23T14:37:08.628Z,496.43
2019-05-23T14:40:01.676Z,403.53
2019-05-23T14:42:53.203Z,746.73
2019-05-23T14:45:44.133Z,553.33
2019-05-23T14:48:32.627Z,732.60
2019-05-23T14:51:28.599Z,867.10
2019-05-23T14:54:06.820Z,573.00
2019-05-23T14:56:38.087Z,615.70
2019-05-23T14:59:08.848Z,668.30
2019-05-23T15:01:39.520Z,714.17
2019-05-23T15:04:10.480Z,818.43
2019-05-23T15:06:40.962Z,661.67
2019-05-23T15:09:11.570Z,573.45
2019-05-23T15:11:41.915Z,659.87
2019-05-23T15:14:12.523Z,560.75
2019-05-23T15:16:43.560Z,924.27
2019-05-23T15:19:14.259Z,545.92
2019-05-23T15:21:44.657Z,708.38
2019-05-23T15:24:15.199Z,575.75
2019-05-23T15:26:46.282Z,708.65
2019-05-23T15:29:16.803Z,804.43
2019-05-23T15:32:00.919Z,599.70
2019-05-23T15:34:19.285Z,758.47
2019-05-23T15:36:49.936Z,633.02
2019-05-23T15:39:22.087Z,778.80
2019-05-23T15:41:52.420Z,541.43
2019-05-23T15:44:27.878Z,732.43
2019-05-23T15:46:55.574Z,662.03
2019-05-23T15:49:28.283Z,667.48
2019-05-23T15:52:06.108Z,688.43
2019-05-23T15:54:43.340Z,607.00
2019-05-23T15:57:19.376Z,706.27
2019-05-23T15:59:55.650Z,643.42
2019-05-23T16:02:32.570Z,807.10
2019-05-23T16:05:03.620Z,691.53
2019-05-23T16:07:35.216Z,709.85
2019-05-23T16:10:07.212Z,607.73
2019-05-23T16:12:38.096Z,648.47
2019-05-23T16:15:09.269Z,694.52
2019-05-23T16:17:40.091Z,631.33
2019-05-23T16:20:10.711Z,725.17
2019-05-23T16:22:41.057Z,481.43
2019-05-23T16:25:11.845Z,613.27
2019-05-23T16:27:42.349Z,509.07
2019-05-23T16:30:14.093Z,623.63
2019-05-23T16:32:46.720Z,610.00
2019-05-23T16:35:16.884Z,525.33
2019-05-23T16:37:47.614Z,399.00
2019-05-23T16:40:18.108Z,397.97
2019-05-23T16:42:48.461Z,509.70
2019-05-23T16:45:19.312Z,461.77
2019-05-23T16:47:49.882Z,521.37
2019-05-23T16:50:20.282Z,504.63
2019-05-23T16:52:50.975Z,471.10
2019-05-23T16:55:30.028Z,482.10
2019-05-23T16:58:05.351Z,362.13
2019-05-23T17:01:03.174Z,504.77
2019-05-23T17:04:01.596Z,529.37
2019-05-23T17:06:41.579Z,534.23
2019-05-23T17:09:36.921Z,486.87
2019-05-23T17:12:44.890Z,485.70
2019-05-23T17:15:33.746Z,486.33
2019-05-23T17:18:18.891Z,418.47
2019-05-23T17:20:58.986Z,363.87
2019-05-23T17:24:03.685Z,328.73
2019-05-23T17:26:40.481Z,296.03
2019-05-23T17:29:17.594Z,289.60
2019-05-23T17:31:50.109Z,332.57
2019-05-23T17:34:21.145Z,345.40
2019-05-23T17:36:51.593Z,329.03
2019-05-23T17:39:22.072Z,388.63
2019-05-23T17:41:53.197Z,348.33
2019-05-23T17:44:23.867Z,334.67
2019-05-23T17:46:54.851Z,337.77
2019-05-23T17:49:25.245Z,338.03
2019-05-23T17:51:56.006Z,339.17
2019-05-23T17:54:26.954Z,336.20
2019-05-23T17:56:57.344Z,487.73
2019-05-23T17:59:27.680Z,458.43
2019-05-23T18:01:58.489Z,382.40
2019-05-23T18:04:29.146Z,421.40
2019-05-23T18:06:59.754Z,506.93
2019-05-23T18:09:31.077Z,634.80
2019-05-23T18:12:02.082Z,488.77
2019-05-23T18:14:32.987Z,473.27
2019-05-23T18:17:03.775Z,412.67
2019-05-23T18:19:35.577Z,376.47
2019-05-23T18:22:08.550Z,381.80
2019-05-23T18:24:39.440Z,321.27
2019-05-23T18:27:10.948Z,317.00
2019-05-23T18:29:42.339Z,245.50
2019-05-23T18:32:18.607Z,349.33
2019-05-23T18:34:49.562Z,346.53
2019-05-23T18:37:20.757Z,318.23
2019-05-23T18:39:51.176Z,390.23
2019-05-23T18:42:23.572Z,313.17
2019-05-23T18:44:53.923Z,294.70
2019-05-23T18:47:29.960Z,332.37
2019-05-23T18:50:00.604Z,363.13
2019-05-23T18:52:31.015Z,342.93
2019-05-23T18:55:01.576Z,522.47
2019-05-23T18:57:33.607Z,312.10
2019-05-23T19:00:04.267Z,454.73
2019-05-23T19:02:34.657Z,402.43
2019-05-23T19:05:08.677Z,397.63
2019-05-23T19:07:41.108Z,408.03
2019-05-23T19:10:12.502Z,514.67
2019-05-23T19:12:44.659Z,534.70
2019-05-23T19:15:15.352Z,514.57
2019-05-23T19:17:46.178Z,503.93
2019-05-23T19:20:16.995Z,550.67
2019-05-23T19:22:47.418Z,680.20
2019-05-23T19:25:19.063Z,732.43
2019-05-23T19:27:49.688Z,717.47
2019-05-23T19:30:21.329Z,679.50
2019-05-23T19:32:52.053Z,734.07
2019-05-23T19:35:23.010Z,702.93
2019-05-23T19:37:53.650Z,721.97
2019-05-23T19:40:24.851Z,560.73
2019-05-23T19:42:55.702Z,617.93
2019-05-23T19:45:26.042Z,532.23
2019-05-23T19:47:56.582Z,556.73
2019-05-23T19:50:27.048Z,569.13
2019-05-23T19:52:57.914Z,649.43
2019-05-23T19:55:29.059Z,531.97
2019-05-23T19:58:00.703Z,523.37
2019-05-23T20:00:31.788Z,580.10
2019-05-23T20:03:04.106Z,583.03
2019-05-23T20:05:37.182Z,611.10
2019-05-23T20:08:09.048Z,625.77
2019-05-23T20:10:40.215Z,517.13
2019-05-23T20:13:10.621Z,422.63
2019-05-23T20:15:45.280Z,501.10
2019-05-23T20:18:13.710Z,503.90
2019-05-23T20:20:44.179Z,517.93
2019-05-23T20:23:16.319Z,516.57
2019-05-23T20:25:46.993Z,498.07
2019-05-23T20:28:17.343Z,475.87
2019-05-23T20:30:56.280Z,462.20
2019-05-23T20:33:27.184Z,528.27
2019-05-23T20:35:57.861Z,521.13
2019-05-23T20:38:28.556Z,571.37
2019-05-23T20:40:59.341Z,713.83
2019-05-23T20:43:30.034Z,617.07
2019-05-23T20:46:00.379Z,529.83
2019-05-23T20:48:30.979Z,632.13
2019-05-23T20:51:01.492Z,486.43
2019-05-23T20:53:32.539Z,510.57
2019-05-23T20:56:02.936Z,497.30
2019-05-23T20:58:33.238Z,495.93
2019-05-23T21:01:16.319Z,567.43
2019-05-23T21:03:49.316Z,503.60
2019-05-23T21:06:19.793Z,581.93
2019-05-23T21:08:50.255Z,661.73
2019-05-23T21:11:22.286Z,731.57
2019-05-23T21:13:52.609Z,663.73
2019-05-23T21:16:23.144Z,598.73
2019-05-23T21:18:53.935Z,657.87
2019-05-23T21:21:24.289Z,616.53
2019-05-23T21:23:57.027Z,683.03
2019-05-23T21:26:27.043Z,654.93
2019-05-23T21:28:57.387Z,722.40
2019-05-23T21:31:28.153Z,854.53
2019-05-23T21:33:58.525Z,585.73
2019-05-23T21:36:29.069Z,523.23
2019-05-23T21:38:59.717Z,514.30
2019-05-23T21:41:30.059Z,546.13
2019-05-23T21:44:00.371Z,546.30
2019-05-23T21:46:31.208Z,546.30
2019-05-23T21:49:01.688Z,540.30
2019-05-23T21:51:32.013Z,554.10
2019-05-23T21:54:02.786Z,483.07
2019-05-23T21:56:33.515Z,478.57
2019-05-23T21:59:03.908Z,451.50
2019-05-23T22:01:50.965Z,465.63
2019-05-23T22:04:33.824Z,460.00
2019-05-23T22:07:08.778Z,421.67
2019-05-23T22:09:39.704Z,460.13
2019-05-23T22:12:15.381Z,448.37
2019-05-23T22:14:47.762Z,459.03
2019-05-23T22:17:20.239Z,460.50
2019-05-23T22:19:50.721Z,430.60
2019-05-23T22:22:21.557Z,434.53
2019-05-23T22:24:52.938Z,396.27
2019-05-23T22:27:23.321Z,424.60
2019-05-23T22:29:54.777Z,405.63
2019-05-23T22:32:26.910Z,417.50
2019-05-23T22:35:22.727Z,396.47
2019-05-23T22:37:53.559Z,413.17
2019-05-23T22:40:23.910Z,391.10
2019-05-23T22:42:57.085Z,379.87
2019-05-23T22:45:28.850Z,408.13
2019-05-23T22:48:00.397Z,345.33
2019-05-23T22:50:30.932Z,446.00
2019-05-23T22:53:01.834Z,467.40
2019-05-23T22:55:32.225Z,423.67
2019-05-23T22:58:02.607Z,420.60
2019-05-23T23:00:35.302Z,442.53
2019-05-23T23:03:07.180Z,395.07
2019-05-23T23:05:37.868Z,491.73
2019-05-23T23:08:08.537Z,372.80
2019-05-23T23:10:39.223Z,391.37
2019-05-23T23:13:10.215Z,400.30
2019-05-23T23:15:40.738Z,460.87
2019-05-23T23:18:11.265Z,409.83
2019-05-23T23:20:45.906Z,357.90
2019-05-23T23:23:16.269Z,433.23
2019-05-23T23:25:46.945Z,397.53
2019-05-23T23:28:17.799Z,420.73
2019-05-23T23:30:50.007Z,502.23
2019-05-23T23:33:20.851Z,487.90
2019-05-23T23:35:52.237Z,601.27
2019-05-23T23:38:22.610Z,605.43
2019-05-23T23:40:53.323Z,653.23
2019-05-23T23:43:23.668Z,627.77
2019-05-23T23:46:11.782Z,607.93
2019-05-23T23:48:59.827Z,610.20
2019-05-23T23:51:47.918Z,580.60
2019-05-23T23:54:35.984Z,541.47
2019-05-23T23:57:24.052Z,600.00
2019-05-23T23:59:53.695Z,624.80
